Startpagina
METAR-TAF:

METAR-TAF

Vliegvelden :

Wallis, Frankrijk

breedte: 13-14S, lengte: 176-10W, hoogte: 23 m

METAR: ontbreekt

Tijdstip: 22:04 (10:04 UTC)

Verwachting

Dit bericht is 5 uur en het 4 minuten geleden gemaakt, om 05:00 UTC
Verwachting geldig van 19 om 06 UTC tot 20 om 06 UTC
Wind 9 kt uit het zuidzuidwesten
Zicht 10 km of meer
Verspreide wolken op 2000 ft
Tijdelijke
van 19 om 06 UTC tot 19 om 15 UTC
Weinig wolken op 2500 ft, Stapelwolken.
regenbuien
Kans 40% :
Tijdelijke
van 19 om 08 UTC tot 19 om 15 UTC
Zicht: 3000 m
Weinig wolken op 1500 ft, Cumulonimbus.
regenbuien

TAF: NLWW 190500Z 1906/2006 21009KT 9999 SCT020 TEMPO 1906/1915 SHRA FEW025TCU PROB40 TEMPO 1908/1915 3000 SHRA FEW015CB

Waarnemingen en weersverwachtingen van meer dan 4000 vliegvelden (METAR en TAF).

De beschikbare stations zijn de gele en rode punten op de kaart.

Ga met uw muis naar het station om de naam te zien.

Klik dan om waarnemingen en weersverwachtingen te zien.

kaart wijzigen: klik op de groene knoppen met een zwart kruis om in te zoomen, op de groene knop met een streepje om uit te zoomen of op de groene pijlen voor aangrenzende kaarten.


METAR-TAF: